Airfield :
LOGIN :

Register | Disclaimer

   EN    FR    IT 

 










Legend :    VFR   Marginal VFR   IFR   Intensive IFR   Very Intensive IFR
Visi :
Ceiling :
>= 8 km
>= 3000ft
5 to 8 km
1000 to 3000 ft
1500m to 5 km
500 to 1000 ft
800 to 1500m
200 to 500 ft
< 800m
< 200 ft
Symbols :   Thunderstorms  Fog  Heavy snow  Heavy precipitations  Wind > 20 kt
SIGMETs :     Misc.  Thunderstorms  Icing  Turbulence  Mountain Waves  Volcanic Ashes






- Airport Elevation : 1367 ft
- IATA code : FDH


EDNY - Friedrichshafen

CURRENT METAR :
  • 011350Z 02005KT 9999 OVC022 04/00 Q1020

EXPIRED METARs :
  • 011320Z 01007KT 9999 FEW019 SCT023 OVC048 04/00 Q1020
  • 011250Z 02008KT 9999 SCT022 OVC047 04/01 Q1020
  • 011220Z 01008KT 9999 SCT022 OVC048 04/01 Q1020
  • 011150Z 01007KT 9999 FEW019 OVC047 04/01 Q1020
  • 011120Z 02008KT 9999 FEW019 OVC049 04/01 Q1020

TAF TAF EDNY
Valid from the 01 at 12:00 until the 02 at 12:00 UTC


011100Z 0112/0212 03005KT 9999 FEW015 BKN030
PROB30
TEMPO 0201/0208 4000 BR BKN008



MET'MAP, your aeronautical weather chart ! - Copyright ORBIFLY December 2007 - Disclaimer

ORBIFLY MET'MAP TEAM :

Programming & Development : Alexandra Zaïnal
Original concept : Baudouin d'Aumeries
Technical & hardware support : Manuel Goepfert
Assistance : Marc-Olivier Méhu




SOURCES & CREDITS :

   NOAA